Santa Rita Foothills, Arizona
Current Conditions -  °F | °C
As of 1:53 PM on Thursday 23 Oct 2014 (Local Time) from KTUS Reporting Station
Clear Clear  
Wind Chill: 89°   Ceiling: Unl
Heat Index: 89°   Visibility: 10mi
Dew Point: 43°   Wind: 3mph
Humidity: 20%   Direction: NA
Pressure: 30.04"   Gusts: NA
Location:  31.9353°N, 110.697°W
Report Text: KTUS 232053Z VRB03KT 10SM CLR 32/06 A3004 RMK AO2 SLP130 T03170061 58024
Loading
Personal Weather Stations






























Interactive Weather Map
Tropical Storm Tracking
New forecast layout! Learn more

10-Day Weather Forecast

Advertisements
Track Severe Weather on mobile